Howes Cave, New York
Current Conditions -  °F | °C
As of 2:15 PM on Friday 21 Nov 2014 (Local Time) from KNY0 Reporting Station
Scattered Clouds Scattered Clouds  
Wind Chill: 11°   Ceiling: Unl
Heat Index: 25°   Visibility: 10mi
Dew Point:   Wind: 17mph
Humidity: 44%   Direction: 290°WNW
Pressure: 30.28"   Gusts: 24mph
Location:  42.69°N, 74.38°W
Report Text: KNY0 211915Z AUTO 29015G21KT 10SM SCT046 M04/M15 A3028 RMK AO2 T10411147
Loading
Personal Weather Stations






























Interactive Weather Map New forecast layout! Learn more

10-Day Weather Forecast

Advertisements
Track Severe Weather on mobile